METAR Analyzer

List View

Hello, Guest. (Login)

RJCC/CTS  -  札幌/新千歳

Obs at
2021-11-28 19:00 (UTC) (47min ago)
Temp
-5
Dew-pt
-6
T-Td
1
RH
92.7%
QNH
1025.4hPa
Est. Station Pressure
1022.4hPa
Est. SLP
1025.7hPa
Feels like
-11.5
(no wind)
-0.4
HI
-7
Temp chg in 24h
-5
Feels-like chg in 24h
+2.6
HI chg in 24h
-5.7
H-Vis
>10000m
V-Vis
No data
CIG
No dense clouds
V/I
VMC (VFR)
RVR
No RVR data
Wind
2kt from 210°
Gust
No gust
Precipitation
Not reported
Other Wx
Not reported
Clouds
Few (1/8) Stratus @ 500ft AGL

RJCC 281900Z 21002KT 9999 FEW005 M05/M06 Q1025 RMK 1ST005 A3028

RJTT/HND  -  東京/羽田

Obs at
2021-11-28 19:30 (UTC) (17min ago)
Temp
9
Dew-pt
1
T-Td
8
RH
57.2%
QNH
1031hPa
Est. Station Pressure
1030.3hPa
Est. SLP
1031.0hPa
Feels like
-0.9
(no wind)
11.9
HI
7.4
Temp chg in 24h
+1
Feels-like chg in 24h
+1.8
HI chg in 24h
+1.2
H-Vis
>10000m
V-Vis
No data
CIG
No dense clouds
V/I
VMC (VFR)
RVR
No RVR data
Wind
9kt from 360°
Gust
No gust
Precipitation
Not reported
Other Wx
Not reported
Clouds
Few clouds @ 3000ft AGL

RJTT 281930Z 36009KT 9999 FEW030 09/01 Q1031 NOSIG

RJAA/NRT  -  東京/成田

Obs at
2021-11-28 19:00 (UTC) (47min ago)
Temp
2
Dew-pt
-1
T-Td
3
RH
80.5%
QNH
1030.8hPa
Est. Station Pressure
1029.5hPa
Est. SLP
1030.9hPa
Feels like
-2.9
(no wind)
6.1
HI
0.4
Temp chg in 24h
-1
Feels-like chg in 24h
+2.4
HI chg in 24h
-1.1
H-Vis
>10000m
V-Vis
No data
CIG
No dense clouds
V/I
VMC (VFR)
RVR
No RVR data
Wind
2kt from 310°
Gust
No gust
Precipitation
Not reported
Other Wx
Not reported
Clouds
Few (1/8) Cumulus @ 2000ft AGL

RJAA 281900Z 31002KT 9999 FEW020 02/M01 Q1030 NOSIG RMK 1CU020 A3044

RJGG/NGO  -  名古屋/中部

Obs at
2021-11-28 19:00 (UTC) (47min ago)
Temp
6
Dew-pt
2
T-Td
4
RH
75.5%
QNH
1030.8hPa
Est. Station Pressure
1030.3hPa
Est. SLP
1030.8hPa
Feels like
-3.5
(no wind)
9.4
HI
4.6
Temp chg in 24h
-3
Feels-like chg in 24h
-0.1
HI chg in 24h
-3
H-Vis
>10000m
V-Vis
No data
CIG
No dense clouds
V/I
VMC (VFR)
RVR
No RVR data
Wind
6kt from 20°
Gust
No gust
Precipitation
Not reported
Other Wx
Not reported
Clouds
Few (1/8) Cumulus @ 3000ft AGL

RJGG 281900Z 02006KT 9999 FEW030 06/02 Q1030 NOSIG RMK 1CU030 A3044

RJOO/ITM  -  大阪/伊丹